createdAt,value
2022-09-23T00:00:14.170Z,7.42
2022-09-23T00:01:14.265Z,7.42
2022-09-23T00:02:14.165Z,7.42
2022-09-23T00:03:14.116Z,7.40
2022-09-23T00:04:14.107Z,7.38
2022-09-23T00:05:14.096Z,7.36
2022-09-23T00:06:14.115Z,7.35
2022-09-23T00:07:14.095Z,7.31
2022-09-23T00:08:14.066Z,7.31
2022-09-23T00:09:14.046Z,7.25
2022-09-23T00:10:14.054Z,7.25
2022-09-23T00:11:14.036Z,7.23
2022-09-23T00:12:14.055Z,7.21
2022-09-23T00:13:14.007Z,7.18
2022-09-23T00:14:13.996Z,7.17
2022-09-23T00:15:13.997Z,7.18
2022-09-23T00:16:13.978Z,7.17
2022-09-23T00:17:14.036Z,7.14
2022-09-23T00:18:13.968Z,7.13
2022-09-23T00:19:13.926Z,7.07
2022-09-23T00:20:13.933Z,7.02
2022-09-23T00:21:13.913Z,7.00
2022-09-23T00:22:13.920Z,6.99
2022-09-23T00:23:13.938Z,6.96
2022-09-23T00:24:13.896Z,6.95
2022-09-23T00:25:13.879Z,6.96
2022-09-23T00:26:13.858Z,6.96
2022-09-23T00:27:13.845Z,6.96
2022-09-23T00:28:13.825Z,6.96
2022-09-23T00:29:13.856Z,6.96
2022-09-23T00:30:13.827Z,6.97
2022-09-23T00:31:13.901Z,6.96
2022-09-23T00:32:14.446Z,6.96
2022-09-23T00:33:13.807Z,6.95
2022-09-23T00:34:13.786Z,6.92
2022-09-23T00:35:13.775Z,6.89
2022-09-23T00:36:13.735Z,6.88
2022-09-23T00:37:13.726Z,6.88
2022-09-23T00:38:13.715Z,6.85
2022-09-23T00:39:13.697Z,6.87
2022-09-23T00:40:13.774Z,6.88
2022-09-23T00:41:13.695Z,6.85
2022-09-23T00:42:13.695Z,6.82
2022-09-23T00:43:13.666Z,6.81
2022-09-23T00:44:13.666Z,6.82
2022-09-23T00:45:13.626Z,6.82
2022-09-23T00:46:13.748Z,6.84
2022-09-23T00:47:13.686Z,6.82
2022-09-23T00:48:13.603Z,6.78
2022-09-23T00:49:13.588Z,6.75
2022-09-23T00:50:13.579Z,6.70
2022-09-23T00:51:13.559Z,6.67
2022-09-23T00:52:13.553Z,6.66
2022-09-23T00:53:13.564Z,6.63
2022-09-23T00:54:13.535Z,6.64
2022-09-23T00:55:13.632Z,6.62
2022-09-23T00:56:13.526Z,6.62
2022-09-23T00:57:13.494Z,6.57
2022-09-23T00:58:13.516Z,6.54
2022-09-23T00:59:13.475Z,6.48
2022-09-23T01:00:13.485Z,6.51
2022-09-23T01:01:13.514Z,6.54
2022-09-23T01:02:13.486Z,6.56
2022-09-23T01:03:13.434Z,6.54
2022-09-23T01:04:13.585Z,6.54
2022-09-23T01:05:13.424Z,6.52
2022-09-23T01:06:13.406Z,6.57
2022-09-23T01:07:13.386Z,6.63
2022-09-23T01:08:13.384Z,6.63
2022-09-23T01:09:13.357Z,6.66
2022-09-23T01:10:13.386Z,6.66
2022-09-23T01:11:13.375Z,6.69
2022-09-23T01:12:13.389Z,6.72
2022-09-23T01:13:13.315Z,6.72
2022-09-23T01:14:13.306Z,6.69
2022-09-23T01:15:13.292Z,6.70
2022-09-23T01:16:13.395Z,6.66
2022-09-23T01:17:13.313Z,6.66
2022-09-23T01:18:13.263Z,6.67
2022-09-23T01:19:13.272Z,6.69
2022-09-23T01:20:13.234Z,6.70
2022-09-23T01:21:13.223Z,6.67
2022-09-23T01:22:13.246Z,6.64
2022-09-23T01:23:13.202Z,6.60
2022-09-23T01:24:13.192Z,6.60
2022-09-23T01:25:13.188Z,6.59
2022-09-23T01:26:13.185Z,6.52
2022-09-23T01:27:13.155Z,6.49
2022-09-23T01:28:13.183Z,6.46
2022-09-23T01:29:13.132Z,6.42
2022-09-23T01:30:13.121Z,6.42
2022-09-23T01:31:13.172Z,6.39
2022-09-23T01:32:13.103Z,6.39
2022-09-23T01:33:13.083Z,6.36
2022-09-23T01:34:13.094Z,6.33
2022-09-23T01:35:13.071Z,6.30
2022-09-23T01:36:13.050Z,6.27
2022-09-23T01:37:13.053Z,6.24
2022-09-23T01:38:13.022Z,6.20
2022-09-23T01:39:13.052Z,6.17
2022-09-23T01:40:13.089Z,6.12
2022-09-23T01:41:12.985Z,6.11
2022-09-23T01:42:12.982Z,6.09
2022-09-23T01:43:12.972Z,6.09
2022-09-23T01:44:13.073Z,6.07
2022-09-23T01:45:12.975Z,6.08
2022-09-23T01:46:19.988Z,6.08
2022-09-23T01:47:12.918Z,6.07
2022-09-23T01:48:12.954Z,6.08
2022-09-23T01:49:12.910Z,6.08
2022-09-23T01:50:12.898Z,6.09
2022-09-23T01:51:12.907Z,6.09
2022-09-23T01:52:12.867Z,6.11
2022-09-23T01:53:12.856Z,6.14
2022-09-23T01:54:12.849Z,6.16
2022-09-23T01:55:12.840Z,6.14
2022-09-23T01:56:12.827Z,6.16
2022-09-23T01:57:12.829Z,6.14
2022-09-23T01:58:12.798Z,6.17
2022-09-23T01:59:12.789Z,6.17
2022-09-23T02:00:12.785Z,6.14
2022-09-23T02:01:12.849Z,6.14
2022-09-23T02:02:12.801Z,6.09
2022-09-23T02:03:12.746Z,6.11
2022-09-23T02:04:12.737Z,6.11
2022-09-23T02:05:12.726Z,6.12
2022-09-23T02:06:12.717Z,6.11
2022-09-23T02:07:12.728Z,6.11
2022-09-23T02:08:12.716Z,6.12
2022-09-23T02:09:12.919Z,6.09
2022-09-23T02:10:12.667Z,6.09
2022-09-23T02:11:12.656Z,6.07
2022-09-23T02:12:12.648Z,6.04
2022-09-23T02:13:12.636Z,6.04
2022-09-23T02:14:12.645Z,6.01
2022-09-23T02:15:12.606Z,5.99
2022-09-23T02:16:12.626Z,5.99
2022-09-23T02:17:12.599Z,5.98
2022-09-23T02:18:12.576Z,5.99
2022-09-23T02:19:12.586Z,5.94
2022-09-23T02:20:12.557Z,5.94
2022-09-23T02:21:12.545Z,5.91
2022-09-23T02:22:12.536Z,5.86
2022-09-23T02:23:12.526Z,5.86
2022-09-23T02:24:12.515Z,5.84
2022-09-23T02:25:12.543Z,5.83
2022-09-23T02:26:12.497Z,5.86
2022-09-23T02:27:12.475Z,5.87
2022-09-23T02:28:12.477Z,5.86
2022-09-23T02:29:12.460Z,5.89
2022-09-23T02:30:12.465Z,5.86
2022-09-23T02:31:12.437Z,5.86
2022-09-23T02:32:12.493Z,5.84
2022-09-23T02:33:12.415Z,5.83
2022-09-23T02:34:12.406Z,5.83
2022-09-23T02:35:12.396Z,5.82
2022-09-23T02:36:12.406Z,5.80
2022-09-23T02:37:12.366Z,5.76
2022-09-23T02:38:12.364Z,5.69
2022-09-23T02:39:12.349Z,5.68
2022-09-23T02:40:12.410Z,5.66
2022-09-23T02:41:12.325Z,5.65
2022-09-23T02:42:12.334Z,5.61
2022-09-23T02:43:12.305Z,5.56
2022-09-23T02:44:12.296Z,5.54
2022-09-23T02:45:12.283Z,5.54
2022-09-23T02:46:12.377Z,5.53
2022-09-23T02:47:12.274Z,5.54
2022-09-23T02:48:12.273Z,5.54
2022-09-23T02:49:12.236Z,5.53
2022-09-23T02:50:12.224Z,5.56
2022-09-23T02:51:12.215Z,5.54
2022-09-23T02:52:12.204Z,5.56
2022-09-23T02:53:12.193Z,5.54
2022-09-23T02:54:12.245Z,5.53
2022-09-23T02:55:12.172Z,5.51
2022-09-23T02:56:12.165Z,5.50
2022-09-23T02:57:12.143Z,5.48
2022-09-23T02:58:12.136Z,5.48
2022-09-23T02:59:12.134Z,5.47
2022-09-23T03:00:12.133Z,5.44
2022-09-23T03:01:12.160Z,5.41
2022-09-23T03:02:12.167Z,5.41
2022-09-23T03:03:12.083Z,5.43
2022-09-23T03:04:12.078Z,5.47
2022-09-23T03:05:12.086Z,5.50
2022-09-23T03:06:12.053Z,5.47
2022-09-23T03:07:12.042Z,5.43
2022-09-23T03:08:12.024Z,5.38
2022-09-23T03:09:12.013Z,5.36
2022-09-23T03:10:12.002Z,5.32
2022-09-23T03:11:12.022Z,5.32
2022-09-23T03:12:11.983Z,5.29
2022-09-23T03:13:11.973Z,5.26
2022-09-23T03:14:11.964Z,5.26
2022-09-23T03:15:11.952Z,5.26
2022-09-23T03:16:11.989Z,5.26
2022-09-23T03:17:11.953Z,5.28
2022-09-23T03:18:11.913Z,5.26
2022-09-23T03:19:11.904Z,5.25
2022-09-23T03:20:11.893Z,5.26
2022-09-23T03:21:11.883Z,5.32
2022-09-23T03:22:11.872Z,5.32
2022-09-23T03:23:11.882Z,5.33
2022-09-23T03:24:11.852Z,5.33
2022-09-23T03:25:11.843Z,5.33
2022-09-23T03:26:11.825Z,5.35
2022-09-23T03:27:11.820Z,5.33
2022-09-23T03:28:11.825Z,5.30
2022-09-23T03:29:11.794Z,5.28
2022-09-23T03:30:11.782Z,5.29
2022-09-23T03:31:11.907Z,5.28
2022-09-23T03:32:11.762Z,5.29
2022-09-23T03:33:11.751Z,5.30
2022-09-23T03:34:11.760Z,5.30
2022-09-23T03:35:11.731Z,5.33
2022-09-23T03:36:11.717Z,5.38
2022-09-23T03:37:11.713Z,5.38
2022-09-23T03:38:11.692Z,5.38
2022-09-23T03:39:11.711Z,5.39
2022-09-23T03:40:11.706Z,5.41
2022-09-23T03:41:11.664Z,5.39
2022-09-23T03:42:11.650Z,5.44
2022-09-23T03:43:11.644Z,5.46
2022-09-23T03:44:11.631Z,5.47
2022-09-23T03:45:11.639Z,5.48
2022-09-23T03:46:11.635Z,5.48
2022-09-23T03:47:11.602Z,5.48
2022-09-23T03:48:11.589Z,5.47
2022-09-23T03:49:11.575Z,5.48
2022-09-23T03:50:11.592Z,5.51
2022-09-23T03:51:11.552Z,5.48
2022-09-23T03:52:11.539Z,5.50
2022-09-23T03:53:11.531Z,5.50
2022-09-23T03:54:11.521Z,5.48
2022-09-23T03:55:11.513Z,5.48
2022-09-23T03:56:11.522Z,5.48
2022-09-23T03:57:11.492Z,5.48
2022-09-23T03:58:11.471Z,5.51
2022-09-23T03:59:11.470Z,5.51
2022-09-23T04:00:11.450Z,5.47
2022-09-23T04:01:11.512Z,5.47
2022-09-23T04:02:12.195Z,5.47
2022-09-23T04:03:12.028Z,5.47
2022-09-23T04:04:11.409Z,5.50
2022-09-23T04:05:11.399Z,5.51
2022-09-23T04:06:11.389Z,5.50
2022-09-23T04:07:11.407Z,5.51
2022-09-23T04:08:11.362Z,5.53
2022-09-23T04:09:11.360Z,5.54
2022-09-23T04:10:11.339Z,5.56
2022-09-23T04:11:11.331Z,5.54
2022-09-23T04:12:11.319Z,5.54
2022-09-23T04:13:11.338Z,5.54
2022-09-23T04:14:11.299Z,5.57
2022-09-23T04:15:11.289Z,5.59
2022-09-23T04:16:11.302Z,5.61
2022-09-23T04:17:11.269Z,5.59
2022-09-23T04:18:11.252Z,5.59
2022-09-23T04:19:11.855Z,5.61
2022-09-23T04:20:11.230Z,5.59
2022-09-23T04:21:11.227Z,5.59
2022-09-23T04:22:11.209Z,5.57
2022-09-23T04:23:11.209Z,5.57
2022-09-23T04:24:11.188Z,5.59
2022-09-23T04:25:11.201Z,5.62
2022-09-23T04:26:11.167Z,5.61
2022-09-23T04:27:11.159Z,5.62
2022-09-23T04:28:11.140Z,5.61
2022-09-23T04:29:11.139Z,5.62
2022-09-23T04:30:11.119Z,5.64
2022-09-23T04:31:11.153Z,5.62
2022-09-23T04:32:11.098Z,5.64
2022-09-23T04:33:11.088Z,5.62
2022-09-23T04:34:11.088Z,5.62
2022-09-23T04:35:11.081Z,5.62
2022-09-23T04:36:11.081Z,5.59
2022-09-23T04:37:11.051Z,5.59
2022-09-23T04:38:11.029Z,5.57
2022-09-23T04:39:11.029Z,5.56
2022-09-23T04:40:11.047Z,5.56
2022-09-23T04:41:11.008Z,5.54
2022-09-23T04:42:11.008Z,5.54
2022-09-23T04:43:13.576Z,5.54
2022-09-23T04:44:10.968Z,5.50
2022-09-23T04:45:10.957Z,5.48
2022-09-23T04:46:10.946Z,5.47
2022-09-23T04:47:10.937Z,5.50
2022-09-23T04:48:10.937Z,5.50
2022-09-23T04:49:10.982Z,5.51
2022-09-23T04:50:10.905Z,5.51
2022-09-23T04:51:10.896Z,5.53
2022-09-23T04:52:10.878Z,5.51
2022-09-23T04:53:11.107Z,5.53
2022-09-23T04:54:10.857Z,5.54
2022-09-23T04:55:11.426Z,5.53
2022-09-23T04:56:10.836Z,5.53
2022-09-23T04:57:10.845Z,5.51
2022-09-23T04:58:10.815Z,5.48
2022-09-23T04:59:10.918Z,5.47
2022-09-23T05:00:10.796Z,5.44
2022-09-23T05:01:10.825Z,5.39
2022-09-23T05:02:10.833Z,5.38
2022-09-23T05:03:10.758Z,5.35
2022-09-23T05:04:10.766Z,5.35
2022-09-23T05:05:10.737Z,5.36
2022-09-23T05:06:10.728Z,5.39
2022-09-23T05:07:10.722Z,5.41
2022-09-23T05:08:10.699Z,5.44
2022-09-23T05:09:10.763Z,5.44
2022-09-23T05:10:10.707Z,5.44
2022-09-23T05:11:10.674Z,5.44
2022-09-23T05:12:10.656Z,5.43
2022-09-23T05:13:10.727Z,5.41
2022-09-23T05:14:10.639Z,5.41
2022-09-23T05:15:10.627Z,5.39
2022-09-23T05:16:10.660Z,5.39
2022-09-23T05:17:10.626Z,5.36
2022-09-23T05:18:10.588Z,5.36
2022-09-23T05:19:10.623Z,5.36
2022-09-23T05:20:10.574Z,5.38
2022-09-23T05:21:10.585Z,5.38
2022-09-23T05:22:10.547Z,5.41
2022-09-23T05:23:10.545Z,5.43
2022-09-23T05:24:10.526Z,5.44
2022-09-23T05:25:10.518Z,5.44
2022-09-23T05:26:10.504Z,5.46
2022-09-23T05:27:10.518Z,5.48
2022-09-23T05:28:10.483Z,5.53
2022-09-23T05:29:10.538Z,5.56
2022-09-23T05:30:10.463Z,5.59
2022-09-23T05:31:10.483Z,5.61
2022-09-23T05:32:10.437Z,5.64
2022-09-23T05:33:10.454Z,5.71
2022-09-23T05:34:10.415Z,5.75
2022-09-23T05:35:10.405Z,5.82
2022-09-23T05:36:10.404Z,5.84
2022-09-23T05:37:10.384Z,5.90
2022-09-23T05:38:10.373Z,5.93
2022-09-23T05:39:10.440Z,5.99
2022-09-23T05:40:10.416Z,6.05
2022-09-23T05:41:10.415Z,6.09
2022-09-23T05:42:10.332Z,6.16
2022-09-23T05:43:10.436Z,6.22
2022-09-23T05:44:10.534Z,6.27
2022-09-23T05:45:10.313Z,6.33
2022-09-23T05:46:10.310Z,6.36
2022-09-23T05:47:10.330Z,6.44
2022-09-23T05:48:10.255Z,6.46
2022-09-23T05:49:10.423Z,6.48
2022-09-23T05:50:10.253Z,6.54
2022-09-23T05:51:10.223Z,6.57
2022-09-23T05:52:10.212Z,6.63
2022-09-23T05:53:10.207Z,6.69
2022-09-23T05:54:10.304Z,6.75
2022-09-23T05:55:10.253Z,6.79
2022-09-23T05:56:10.188Z,6.85
2022-09-23T05:57:10.154Z,6.88
2022-09-23T05:58:10.133Z,6.95
2022-09-23T05:59:10.202Z,7.00
2022-09-23T06:00:10.116Z,7.03
2022-09-23T06:01:10.103Z,7.06
2022-09-23T06:02:10.170Z,7.10
2022-09-23T06:03:10.143Z,7.13
2022-09-23T06:04:10.114Z,7.18
2022-09-23T06:05:10.063Z,7.24
2022-09-23T06:06:10.044Z,7.32
2022-09-23T06:07:10.069Z,7.36
2022-09-23T06:08:10.025Z,7.42
2022-09-23T06:09:10.081Z,7.48
2022-09-23T06:10:10.000Z,7.56
2022-09-23T06:11:09.991Z,7.58
2022-09-23T06:12:09.975Z,7.66
2022-09-23T06:13:10.025Z,7.72
2022-09-23T06:14:09.954Z,7.75
2022-09-23T06:15:09.952Z,7.77
2022-09-23T06:16:09.973Z,7.83
2022-09-23T06:17:09.923Z,7.88
2022-09-23T06:18:09.904Z,7.90
2022-09-23T06:19:09.944Z,7.94
2022-09-23T06:20:09.888Z,8.01
2022-09-23T06:21:09.881Z,8.13
2022-09-23T06:22:09.865Z,8.19
2022-09-23T06:23:10.534Z,8.23
2022-09-23T06:24:10.194Z,8.26
2022-09-23T06:25:09.861Z,8.27
2022-09-23T06:26:09.830Z,8.30
2022-09-23T06:27:09.813Z,8.37
2022-09-23T06:28:09.795Z,8.48
2022-09-23T06:29:09.782Z,8.51
2022-09-23T06:30:09.793Z,8.48
2022-09-23T06:31:13.068Z,8.46
2022-09-23T06:32:09.753Z,8.55
2022-09-23T06:33:09.741Z,8.63
2022-09-23T06:34:12.312Z,8.69
2022-09-23T06:35:16.691Z,8.79
2022-09-23T06:36:10.726Z,8.87
2022-09-23T06:37:17.961Z,8.94
2022-09-23T06:38:10.693Z,8.99
2022-09-23T06:39:09.673Z,8.95
2022-09-23T06:40:09.711Z,8.95
2022-09-23T06:41:09.642Z,8.95
2022-09-23T06:42:09.654Z,8.95
2022-09-23T06:43:09.642Z,9.00
2022-09-23T06:44:09.641Z,9.10
2022-09-23T06:45:09.602Z,9.19
2022-09-23T06:46:09.653Z,9.26
2022-09-23T06:47:09.584Z,9.29
2022-09-23T06:48:09.622Z,9.32
2022-09-23T06:49:09.552Z,9.34
2022-09-23T06:50:09.543Z,9.39
2022-09-23T06:51:09.533Z,9.47
2022-09-23T06:52:09.523Z,9.54
2022-09-23T06:53:09.977Z,9.58
2022-09-23T06:54:09.598Z,9.54
2022-09-23T06:55:09.492Z,9.59
2022-09-23T06:56:09.474Z,9.56
2022-09-23T06:57:09.623Z,9.58
2022-09-23T06:58:09.454Z,9.66
2022-09-23T06:59:09.461Z,9.79
2022-09-23T07:00:09.430Z,10.01
2022-09-23T07:01:09.586Z,10.19
2022-09-23T07:02:09.480Z,10.31
2022-09-23T07:03:09.403Z,10.37
2022-09-23T07:04:09.406Z,10.51
2022-09-23T07:05:09.373Z,10.59
2022-09-23T07:06:09.388Z,10.67
2022-09-23T07:07:09.353Z,10.72
2022-09-23T07:08:09.335Z,10.78
2022-09-23T07:09:09.380Z,11.00
2022-09-23T07:10:09.334Z,11.18
2022-09-23T07:11:09.306Z,11.41
2022-09-23T07:12:09.292Z,11.66
2022-09-23T07:13:11.916Z,11.95
2022-09-23T07:14:10.272Z,12.28
2022-09-23T07:15:09.293Z,12.60
2022-09-23T07:16:09.327Z,12.73
2022-09-23T07:17:09.235Z,12.83
2022-09-23T07:18:09.224Z,12.85
2022-09-23T07:19:09.211Z,12.91
2022-09-23T07:20:09.203Z,13.04
2022-09-23T07:21:09.213Z,13.22
2022-09-23T07:22:09.184Z,13.53
2022-09-23T07:23:09.164Z,13.79
2022-09-23T07:24:09.212Z,14.03
2022-09-23T07:25:09.145Z,14.15
2022-09-23T07:26:09.135Z,13.99
2022-09-23T07:27:09.144Z,13.95
2022-09-23T07:28:09.105Z,13.92
2022-09-23T07:29:09.103Z,14.04
2022-09-23T07:30:16.618Z,14.05
2022-09-23T07:31:10.144Z,14.04
2022-09-23T07:32:13.806Z,14.14
2022-09-23T07:33:26.261Z,14.26
2022-09-23T07:34:10.096Z,14.33
2022-09-23T07:35:09.025Z,14.33
2022-09-23T07:36:09.075Z,14.50
2022-09-23T07:37:09.004Z,14.77
2022-09-23T07:38:09.015Z,14.99
2022-09-23T07:39:09.021Z,15.24
2022-09-23T07:40:09.024Z,15.24
2022-09-23T07:41:08.984Z,15.33
2022-09-23T07:42:08.956Z,15.44
2022-09-23T07:43:08.945Z,15.73
2022-09-23T07:44:08.961Z,15.92
2022-09-23T07:45:08.918Z,15.92
2022-09-23T07:46:16.078Z,15.77
2022-09-23T07:47:08.905Z,15.61
2022-09-23T07:48:08.886Z,15.52
2022-09-23T07:49:08.878Z,15.43
2022-09-23T07:50:08.884Z,15.40
2022-09-23T07:51:08.845Z,15.22
2022-09-23T07:52:08.839Z,15.24
2022-09-23T07:53:08.825Z,15.35
2022-09-23T07:54:09.047Z,15.55
2022-09-23T07:55:08.798Z,15.86
2022-09-23T07:56:08.808Z,16.08
2022-09-23T07:57:08.776Z,16.38
2022-09-23T07:58:08.778Z,16.33
2022-09-23T07:59:09.111Z,16.46
2022-09-23T08:00:08.747Z,16.68
2022-09-23T08:01:08.795Z,16.86
2022-09-23T08:02:08.716Z,17.06
2022-09-23T08:03:08.756Z,17.09
2022-09-23T08:04:08.696Z,17.23
2022-09-23T08:05:08.685Z,17.33
2022-09-23T08:06:08.677Z,17.31
2022-09-23T08:07:08.677Z,17.44
2022-09-23T08:08:08.647Z,17.56
2022-09-23T08:09:08.648Z,17.54
2022-09-23T08:10:08.638Z,17.48
2022-09-23T08:11:08.619Z,17.42
2022-09-23T08:12:10.641Z,17.49
2022-09-23T08:13:09.608Z,17.71
2022-09-23T08:14:08.587Z,17.83
2022-09-23T08:15:08.576Z,17.89
2022-09-23T08:16:08.654Z,18.23
2022-09-23T08:17:08.548Z,18.47
2022-09-23T08:18:08.589Z,18.44
2022-09-23T08:19:08.546Z,18.63
2022-09-23T08:20:08.519Z,18.73
2022-09-23T08:21:08.501Z,18.58
2022-09-23T08:22:08.489Z,18.63
2022-09-23T08:23:08.480Z,18.52
2022-09-23T08:24:08.498Z,18.11
2022-09-23T08:25:10.089Z,18.11
2022-09-23T08:26:15.664Z,18.19
2022-09-23T08:27:09.430Z,18.23
2022-09-23T08:28:08.423Z,18.34
2022-09-23T08:29:08.431Z,18.40
2022-09-23T08:30:08.454Z,18.44
2022-09-23T08:31:08.490Z,18.43
2022-09-23T08:32:08.381Z,18.38
2022-09-23T08:33:08.363Z,18.53
2022-09-23T08:34:08.395Z,18.71
2022-09-23T08:35:08.350Z,19.02
2022-09-23T08:36:08.351Z,18.89
2022-09-23T08:37:08.312Z,19.00
2022-09-23T08:38:08.312Z,19.37
2022-09-23T08:39:08.293Z,19.81
2022-09-23T08:40:08.333Z,20.09
2022-09-23T08:41:08.273Z,20.11
2022-09-23T08:42:08.282Z,20.03
2022-09-23T08:43:08.252Z,20.10
2022-09-23T08:44:08.243Z,20.00
2022-09-23T08:45:08.231Z,20.25
2022-09-23T08:46:08.244Z,20.55
2022-09-23T08:47:08.226Z,20.50
2022-09-23T08:48:12.670Z,20.44
2022-09-23T08:49:08.184Z,20.28
2022-09-23T08:50:08.177Z,20.09
2022-09-23T08:51:08.156Z,20.24
2022-09-23T08:52:08.145Z,20.70
2022-09-23T08:53:08.215Z,20.96
2022-09-23T08:54:08.126Z,21.03
2022-09-23T08:55:08.114Z,21.06
2022-09-23T08:56:08.107Z,21.07
2022-09-23T08:57:08.089Z,21.12
2022-09-23T08:58:24.351Z,21.07
2022-09-23T08:59:09.147Z,20.58
2022-09-23T09:00:08.057Z,20.41
2022-09-23T09:01:08.103Z,20.60
2022-09-23T09:02:08.243Z,20.82
2022-09-23T09:03:08.026Z,20.59
2022-09-23T09:04:12.395Z,20.00
2022-09-23T09:05:08.000Z,19.52
2022-09-23T09:06:07.988Z,19.54
2022-09-23T09:07:34.710Z,19.67
2022-09-23T09:08:08.969Z,19.54
2022-09-23T09:09:07.951Z,19.39
2022-09-23T09:10:07.978Z,19.14
2022-09-23T09:11:07.934Z,19.24
2022-09-23T09:12:07.920Z,19.45
2022-09-23T09:13:07.910Z,19.19
2022-09-23T09:14:07.900Z,18.90
2022-09-23T09:15:07.880Z,18.78
2022-09-23T09:16:07.972Z,18.59
2022-09-23T09:17:07.862Z,18.71
2022-09-23T09:18:07.973Z,18.98
2022-09-23T09:19:07.924Z,19.15
2022-09-23T09:20:07.831Z,19.48
2022-09-23T09:21:07.812Z,19.62
2022-09-23T09:22:07.832Z,19.51
2022-09-23T09:23:07.800Z,19.41
2022-09-23T09:24:07.830Z,19.31
2022-09-23T09:25:07.795Z,19.18
2022-09-23T09:26:07.772Z,19.07
2022-09-23T09:27:07.744Z,18.83
2022-09-23T09:28:07.755Z,18.59
2022-09-23T09:29:23.837Z,18.47
2022-09-23T09:30:08.722Z,18.13
2022-09-23T09:31:07.752Z,17.51
2022-09-23T09:32:07.693Z,17.16
2022-09-23T09:33:07.708Z,16.96
2022-09-23T09:34:07.676Z,16.66
2022-09-23T09:35:07.674Z,16.46
2022-09-23T09:36:07.668Z,16.54
2022-09-23T09:37:07.738Z,16.58
2022-09-23T09:38:07.625Z,16.69
2022-09-23T09:39:07.715Z,16.87
2022-09-23T09:40:07.662Z,16.99
2022-09-23T09:41:07.587Z,16.96
2022-09-23T09:42:07.582Z,17.09
2022-09-23T09:43:07.566Z,17.15
2022-09-23T09:44:07.645Z,17.11
2022-09-23T09:45:07.555Z,17.16
2022-09-23T09:46:07.651Z,17.11
2022-09-23T09:47:07.519Z,17.09
2022-09-23T09:48:07.515Z,16.99
2022-09-23T09:49:07.563Z,16.99
2022-09-23T09:50:07.516Z,17.14
2022-09-23T09:51:07.477Z,17.27
2022-09-23T09:52:07.466Z,17.27
2022-09-23T09:53:07.403Z,17.27
2022-09-23T09:54:07.393Z,17.11
2022-09-23T09:55:07.373Z,17.09
2022-09-23T09:56:07.394Z,17.16
2022-09-23T09:57:07.351Z,17.24
2022-09-23T09:58:07.342Z,17.19
2022-09-23T09:59:07.426Z,17.19
2022-09-23T10:00:07.321Z,17.23
2022-09-23T10:01:07.356Z,17.22
2022-09-23T10:02:07.310Z,17.06
2022-09-23T10:03:07.284Z,16.81
2022-09-23T10:04:07.358Z,16.76
2022-09-23T10:05:07.259Z,16.81
2022-09-23T10:06:07.251Z,16.93
2022-09-23T10:07:07.257Z,16.79
2022-09-23T10:08:07.230Z,16.71
2022-09-23T10:09:07.258Z,16.58
2022-09-23T10:10:22.050Z,16.60
2022-09-23T10:11:08.190Z,16.66
2022-09-23T10:12:07.180Z,16.72
2022-09-23T10:13:07.205Z,16.87
2022-09-23T10:14:07.160Z,17.02
2022-09-23T10:15:07.275Z,17.02
2022-09-23T10:16:07.141Z,17.05
2022-09-23T10:17:07.202Z,17.04
2022-09-23T10:18:07.117Z,17.15
2022-09-23T10:19:07.221Z,17.23
2022-09-23T10:20:07.087Z,17.33
2022-09-23T10:21:07.079Z,17.44
2022-09-23T10:22:07.069Z,17.52
2022-09-23T10:23:07.056Z,17.49
2022-09-23T10:24:07.051Z,17.39
2022-09-23T10:25:07.090Z,17.23
2022-09-23T10:26:07.030Z,17.12
2022-09-23T10:27:07.018Z,17.12
2022-09-23T10:28:08.115Z,17.26
2022-09-23T10:29:07.057Z,17.30
2022-09-23T10:30:06.986Z,17.36
2022-09-23T10:31:07.043Z,17.39
2022-09-23T10:32:06.962Z,17.34
2022-09-23T10:33:06.950Z,17.30
2022-09-23T10:34:06.941Z,17.23
2022-09-23T10:35:06.930Z,17.09
2022-09-23T10:36:06.943Z,17.04
2022-09-23T10:37:06.903Z,16.96
2022-09-23T10:38:06.901Z,16.96
2022-09-23T10:39:06.990Z,17.04
2022-09-23T10:40:06.955Z,17.02
2022-09-23T10:41:06.914Z,16.97
2022-09-23T10:42:06.877Z,16.86
2022-09-23T10:43:06.858Z,16.79
2022-09-23T10:44:06.946Z,16.91
2022-09-23T10:45:06.826Z,17.02
2022-09-23T10:46:06.864Z,17.12
2022-09-23T10:47:06.819Z,17.16
2022-09-23T10:48:06.790Z,17.29
2022-09-23T10:49:06.783Z,17.42
2022-09-23T10:50:06.871Z,17.56
2022-09-23T10:51:06.766Z,17.67
2022-09-23T10:52:06.758Z,17.76
2022-09-23T10:53:06.763Z,17.90
2022-09-23T10:54:06.939Z,17.98
2022-09-23T10:55:06.714Z,18.01
2022-09-23T10:56:06.714Z,18.05
2022-09-23T10:57:06.694Z,18.16
2022-09-23T10:58:07.475Z,18.16
2022-09-23T10:59:06.695Z,18.16
2022-09-23T11:00:06.666Z,18.19
2022-09-23T11:01:06.675Z,18.19
2022-09-23T11:02:06.647Z,18.03
2022-09-23T11:03:06.637Z,17.83
2022-09-23T11:04:06.725Z,17.78
2022-09-23T11:05:06.677Z,17.79
2022-09-23T11:06:06.601Z,17.83
2022-09-23T11:07:06.591Z,17.71
2022-09-23T11:08:06.581Z,17.64
2022-09-23T11:09:06.571Z,17.74
2022-09-23T11:10:11.521Z,17.85
2022-09-23T11:11:07.543Z,17.94
2022-09-23T11:12:06.544Z,18.07
2022-09-23T11:13:06.523Z,18.18
2022-09-23T11:14:06.654Z,18.29
2022-09-23T11:15:06.504Z,18.34
2022-09-23T11:16:06.514Z,18.41
2022-09-23T11:17:06.519Z,18.40
2022-09-23T11:18:06.474Z,18.35
2022-09-23T11:19:06.486Z,18.43
2022-09-23T11:20:06.456Z,18.53
2022-09-23T11:21:06.455Z,18.60
2022-09-23T11:22:06.428Z,18.68
2022-09-23T11:23:06.408Z,18.75
2022-09-23T11:24:06.539Z,18.74
2022-09-23T11:25:06.409Z,18.83
2022-09-23T11:26:06.379Z,18.88
2022-09-23T11:27:06.398Z,18.90
2022-09-23T11:28:06.360Z,19.00
2022-09-23T11:29:06.343Z,19.08
2022-09-23T11:30:06.340Z,19.02
2022-09-23T11:31:06.393Z,19.09
2022-09-23T11:32:06.309Z,19.14
2022-09-23T11:33:06.327Z,19.21
2022-09-23T11:34:06.302Z,19.29
2022-09-23T11:35:06.278Z,19.34
2022-09-23T11:36:06.263Z,19.36
2022-09-23T11:37:06.254Z,19.40
2022-09-23T11:38:06.234Z,19.47
2022-09-23T11:39:06.246Z,19.45
2022-09-23T11:40:06.256Z,19.44
2022-09-23T11:41:06.246Z,19.39
2022-09-23T11:42:06.197Z,19.36
2022-09-23T11:43:06.186Z,19.33
2022-09-23T11:44:06.311Z,19.33
2022-09-23T11:45:06.160Z,19.24
2022-09-23T11:46:06.297Z,19.18
2022-09-23T11:47:06.138Z,19.21
2022-09-23T11:48:06.121Z,19.24
2022-09-23T11:49:06.116Z,19.07
2022-09-23T11:50:06.119Z,18.98
2022-09-23T11:51:06.090Z,18.93
2022-09-23T11:52:06.078Z,18.90
2022-09-23T11:53:06.068Z,18.92
2022-09-23T11:54:06.100Z,18.92
2022-09-23T11:55:16.812Z,18.95
2022-09-23T11:56:07.051Z,18.98
2022-09-23T11:57:06.021Z,18.89
2022-09-23T11:58:10.713Z,18.89
2022-09-23T11:59:07.221Z,18.83
2022-09-23T12:00:05.982Z,18.74
2022-09-23T12:01:05.971Z,18.68
2022-09-23T12:02:15.449Z,18.70
2022-09-23T12:03:07.074Z,18.77
2022-09-23T12:04:17.981Z,18.86
2022-09-23T12:05:07.053Z,18.88
2022-09-23T12:06:05.914Z,18.93
2022-09-23T12:07:05.904Z,19.02
2022-09-23T12:08:05.915Z,19.07
2022-09-23T12:09:05.884Z,19.02
2022-09-23T12:10:05.867Z,19.07
2022-09-23T12:11:05.855Z,19.11
2022-09-23T12:12:05.846Z,19.11
2022-09-23T12:13:05.837Z,19.11
2022-09-23T12:14:05.890Z,19.21
2022-09-23T12:15:05.817Z,19.34
2022-09-23T12:16:05.800Z,19.47
2022-09-23T12:17:05.828Z,19.36
2022-09-23T12:18:05.787Z,19.34
2022-09-23T12:19:05.819Z,19.34
2022-09-23T12:20:05.748Z,19.29
2022-09-23T12:21:05.740Z,19.36
2022-09-23T12:22:05.719Z,19.49
2022-09-23T12:23:05.720Z,19.58
2022-09-23T12:24:05.755Z,19.66
2022-09-23T12:25:05.709Z,19.63
2022-09-23T12:26:05.682Z,19.64
2022-09-23T12:27:05.672Z,19.59
2022-09-23T12:28:05.660Z,19.40
2022-09-23T12:29:05.651Z,19.27
2022-09-23T12:30:05.659Z,19.31
2022-09-23T12:31:05.795Z,19.37
2022-09-23T12:32:05.613Z,19.44
2022-09-23T12:33:05.614Z,19.40
2022-09-23T12:34:05.592Z,19.36
2022-09-23T12:35:05.591Z,19.24
2022-09-23T12:36:05.600Z,19.22
2022-09-23T12:37:05.585Z,19.19
2022-09-23T12:38:05.543Z,19.19
2022-09-23T12:39:05.542Z,19.27
2022-09-23T12:40:05.573Z,19.29
2022-09-23T12:41:05.524Z,19.21
2022-09-23T12:42:05.528Z,19.16
2022-09-23T12:43:05.495Z,19.00
2022-09-23T12:44:05.483Z,19.07
2022-09-23T12:45:05.477Z,19.19
2022-09-23T12:46:05.469Z,19.30
2022-09-23T12:47:05.454Z,19.48
2022-09-23T12:48:05.455Z,19.64
2022-09-23T12:49:05.425Z,19.81
2022-09-23T12:50:05.416Z,19.86
2022-09-23T12:51:05.407Z,20.00
2022-09-23T12:52:05.386Z,20.09
2022-09-23T12:53:05.385Z,19.96
2022-09-23T12:54:05.418Z,19.89
2022-09-23T12:55:05.387Z,20.03
2022-09-23T12:56:05.347Z,20.13
2022-09-23T12:57:05.354Z,20.14
2022-09-23T12:58:05.318Z,19.99
2022-09-23T12:59:05.318Z,19.76
2022-09-23T13:00:05.327Z,19.74
2022-09-23T13:01:05.430Z,19.82
2022-09-23T13:02:05.349Z,19.89
2022-09-23T13:03:05.268Z,20.04
2022-09-23T13:04:05.309Z,20.09
2022-09-23T13:05:05.255Z,20.02
2022-09-23T13:06:05.259Z,19.96